sensor_id;sensor_type;location;lat;lon;timestamp;P1;durP1;ratioP1;P2;durP2;ratioP2
21000;SDS011;10658;50.920;12.238;2022-11-14T00:04:16;13.07;;;8.80;;
21000;SDS011;10658;50.920;12.238;2022-11-14T00:08:35;12.25;;;8.27;;
21000;SDS011;10658;50.920;12.238;2022-11-14T00:12:56;12.60;;;9.05;;
21000;SDS011;10658;50.920;12.238;2022-11-14T00:17:15;13.60;;;8.77;;
21000;SDS011;10658;50.920;12.238;2022-11-14T00:21:35;13.90;;;8.27;;
21000;SDS011;10658;50.920;12.238;2022-11-14T00:25:56;12.23;;;8.68;;
21000;SDS011;10658;50.920;12.238;2022-11-14T00:30:16;19.75;;;9.63;;
21000;SDS011;10658;50.920;12.238;2022-11-14T00:34:36;12.70;;;9.25;;
21000;SDS011;10658;50.920;12.238;2022-11-14T00:38:57;14.50;;;9.38;;
21000;SDS011;10658;50.920;12.238;2022-11-14T00:43:16;15.43;;;8.82;;
21000;SDS011;10658;50.920;12.238;2022-11-14T00:47:36;15.18;;;10.25;;
21000;SDS011;10658;50.920;12.238;2022-11-14T00:51:56;13.95;;;8.98;;
21000;SDS011;10658;50.920;12.238;2022-11-14T00:56:16;10.90;;;8.52;;
21000;SDS011;10658;50.920;12.238;2022-11-14T01:00:35;13.35;;;8.95;;
21000;SDS011;10658;50.920;12.238;2022-11-14T01:04:55;11.88;;;7.93;;
21000;SDS011;10658;50.920;12.238;2022-11-14T01:09:14;12.50;;;8.32;;
21000;SDS011;10658;50.920;12.238;2022-11-14T01:13:34;10.82;;;8.43;;
21000;SDS011;10658;50.920;12.238;2022-11-14T01:17:55;10.35;;;7.65;;
21000;SDS011;10658;50.920;12.238;2022-11-14T01:22:15;11.32;;;7.78;;
21000;SDS011;10658;50.920;12.238;2022-11-14T01:26:35;12.75;;;8.55;;
21000;SDS011;10658;50.920;12.238;2022-11-14T01:30:55;8.70;;;7.28;;
21000;SDS011;10658;50.920;12.238;2022-11-14T01:35:15;9.32;;;7.55;;
21000;SDS011;10658;50.920;12.238;2022-11-14T01:39:35;10.82;;;7.43;;
21000;SDS011;10658;50.920;12.238;2022-11-14T01:43:55;9.32;;;7.40;;
21000;SDS011;10658;50.920;12.238;2022-11-14T01:48:24;9.50;;;7.15;;
21000;SDS011;10658;50.920;12.238;2022-11-14T01:52:47;9.27;;;6.72;;
21000;SDS011;10658;50.920;12.238;2022-11-14T01:57:07;9.45;;;7.00;;
21000;SDS011;10658;50.920;12.238;2022-11-14T02:01:30;9.95;;;6.60;;
21000;SDS011;10658;50.920;12.238;2022-11-14T02:05:52;9.20;;;7.00;;
21000;SDS011;10658;50.920;12.238;2022-11-14T02:10:15;7.63;;;6.13;;
21000;SDS011;10658;50.920;12.238;2022-11-14T02:14:36;9.75;;;6.80;;
21000;SDS011;10658;50.920;12.238;2022-11-14T02:18:57;8.63;;;6.65;;
21000;SDS011;10658;50.920;12.238;2022-11-14T02:23:29;10.38;;;7.85;;
21000;SDS011;10658;50.920;12.238;2022-11-14T02:27:50;8.88;;;6.60;;
21000;SDS011;10658;50.920;12.238;2022-11-14T02:32:10;8.30;;;6.30;;
21000;SDS011;10658;50.920;12.238;2022-11-14T02:36:31;8.85;;;7.05;;
21000;SDS011;10658;50.920;12.238;2022-11-14T02:40:50;7.60;;;5.70;;
21000;SDS011;10658;50.920;12.238;2022-11-14T02:45:09;8.65;;;6.40;;
21000;SDS011;10658;50.920;12.238;2022-11-14T02:49:30;8.50;;;7.20;;
21000;SDS011;10658;50.920;12.238;2022-11-14T02:53:51;8.77;;;6.90;;
21000;SDS011;10658;50.920;12.238;2022-11-14T02:58:13;11.55;;;6.85;;
21000;SDS011;10658;50.920;12.238;2022-11-14T03:02:32;9.98;;;7.40;;
21000;SDS011;10658;50.920;12.238;2022-11-14T03:06:53;9.70;;;6.38;;
21000;SDS011;10658;50.920;12.238;2022-11-14T03:11:12;11.00;;;7.63;;
21000;SDS011;10658;50.920;12.238;2022-11-14T03:15:35;9.18;;;7.53;;
21000;SDS011;10658;50.920;12.238;2022-11-14T03:19:55;12.02;;;7.70;;
21000;SDS011;10658;50.920;12.238;2022-11-14T03:24:17;9.65;;;6.75;;
21000;SDS011;10658;50.920;12.238;2022-11-14T03:28:38;7.40;;;5.97;;
21000;SDS011;10658;50.920;12.238;2022-11-14T03:32:58;9.80;;;6.47;;
21000;SDS011;10658;50.920;12.238;2022-11-14T03:37:19;8.63;;;6.72;;
21000;SDS011;10658;50.920;12.238;2022-11-14T03:41:39;9.50;;;6.97;;
21000;SDS011;10658;50.920;12.238;2022-11-14T03:45:59;7.70;;;6.82;;
21000;SDS011;10658;50.920;12.238;2022-11-14T03:50:19;11.43;;;7.13;;
21000;SDS011;10658;50.920;12.238;2022-11-14T03:54:39;9.27;;;6.70;;
21000;SDS011;10658;50.920;12.238;2022-11-14T03:58:59;8.80;;;6.60;;
21000;SDS011;10658;50.920;12.238;2022-11-14T04:03:19;7.90;;;6.35;;
21000;SDS011;10658;50.920;12.238;2022-11-14T04:07:40;10.25;;;6.72;;
21000;SDS011;10658;50.920;12.238;2022-11-14T04:11:59;8.55;;;7.18;;
21000;SDS011;10658;50.920;12.238;2022-11-14T04:16:20;7.57;;;6.25;;
21000;SDS011;10658;50.920;12.238;2022-11-14T04:20:40;9.45;;;5.95;;
21000;SDS011;10658;50.920;12.238;2022-11-14T04:25:00;10.52;;;6.47;;
21000;SDS011;10658;50.920;12.238;2022-11-14T04:29:20;8.65;;;6.38;;
21000;SDS011;10658;50.920;12.238;2022-11-14T04:33:40;8.40;;;6.50;;
21000;SDS011;10658;50.920;12.238;2022-11-14T04:38:00;8.75;;;6.45;;
21000;SDS011;10658;50.920;12.238;2022-11-14T04:42:20;9.55;;;6.22;;
21000;SDS011;10658;50.920;12.238;2022-11-14T04:46:40;9.30;;;6.40;;
21000;SDS011;10658;50.920;12.238;2022-11-14T04:51:00;7.80;;;5.68;;
21000;SDS011;10658;50.920;12.238;2022-11-14T04:55:20;8.07;;;6.00;;
21000;SDS011;10658;50.920;12.238;2022-11-14T04:59:39;9.50;;;6.28;;
21000;SDS011;10658;50.920;12.238;2022-11-14T05:04:00;9.10;;;6.20;;
21000;SDS011;10658;50.920;12.238;2022-11-14T05:08:20;8.68;;;6.40;;
21000;SDS011;10658;50.920;12.238;2022-11-14T05:12:41;8.50;;;6.05;;
21000;SDS011;10658;50.920;12.238;2022-11-14T05:17:01;5.97;;;5.15;;
21000;SDS011;10658;50.920;12.238;2022-11-14T05:21:21;8.50;;;6.53;;
21000;SDS011;10658;50.920;12.238;2022-11-14T05:25:41;8.18;;;5.93;;
21000;SDS011;10658;50.920;12.238;2022-11-14T05:30:00;7.85;;;6.07;;
21000;SDS011;10658;50.920;12.238;2022-11-14T05:34:20;7.47;;;5.72;;
21000;SDS011;10658;50.920;12.238;2022-11-14T05:38:40;5.43;;;4.82;;
21000;SDS011;10658;50.920;12.238;2022-11-14T05:43:00;7.13;;;5.40;;
21000;SDS011;10658;50.920;12.238;2022-11-14T05:47:20;8.32;;;5.13;;
21000;SDS011;10658;50.920;12.238;2022-11-14T05:51:41;6.88;;;5.20;;
21000;SDS011;10658;50.920;12.238;2022-11-14T05:56:00;8.15;;;6.10;;
21000;SDS011;10658;50.920;12.238;2022-11-14T06:00:26;6.28;;;5.22;;
21000;SDS011;10658;50.920;12.238;2022-11-14T06:04:46;7.38;;;5.47;;
21000;SDS011;10658;50.920;12.238;2022-11-14T06:09:06;8.15;;;5.50;;
21000;SDS011;10658;50.920;12.238;2022-11-14T06:13:26;6.38;;;5.28;;
21000;SDS011;10658;50.920;12.238;2022-11-14T06:17:45;9.05;;;5.65;;
21000;SDS011;10658;50.920;12.238;2022-11-14T06:22:06;7.57;;;5.93;;
21000;SDS011;10658;50.920;12.238;2022-11-14T06:26:28;6.38;;;4.90;;
21000;SDS011;10658;50.920;12.238;2022-11-14T06:30:50;9.80;;;5.50;;
21000;SDS011;10658;50.920;12.238;2022-11-14T06:35:10;6.97;;;4.93;;
21000;SDS011;10658;50.920;12.238;2022-11-14T06:39:29;5.53;;;4.80;;
21000;SDS011;10658;50.920;12.238;2022-11-14T06:43:50;7.00;;;5.82;;
21000;SDS011;10658;50.920;12.238;2022-11-14T06:48:11;5.38;;;4.78;;
21000;SDS011;10658;50.920;12.238;2022-11-14T06:52:33;6.28;;;5.25;;
21000;SDS011;10658;50.920;12.238;2022-11-14T06:56:52;8.00;;;5.88;;
21000;SDS011;10658;50.920;12.238;2022-11-14T07:01:14;9.48;;;6.63;;
21000;SDS011;10658;50.920;12.238;2022-11-14T07:05:38;6.70;;;5.50;;
21000;SDS011;10658;50.920;12.238;2022-11-14T07:09:58;8.48;;;5.47;;
21000;SDS011;10658;50.920;12.238;2022-11-14T07:14:19;6.70;;;5.22;;
21000;SDS011;10658;50.920;12.238;2022-11-14T07:18:39;6.45;;;5.78;;
21000;SDS011;10658;50.920;12.238;2022-11-14T07:23:00;8.27;;;6.10;;
21000;SDS011;10658;50.920;12.238;2022-11-14T07:27:20;8.52;;;6.53;;
21000;SDS011;10658;50.920;12.238;2022-11-14T07:31:40;10.13;;;6.03;;
21000;SDS011;10658;50.920;12.238;2022-11-14T07:36:01;7.75;;;6.25;;
21000;SDS011;10658;50.920;12.238;2022-11-14T07:40:21;9.23;;;6.38;;
21000;SDS011;10658;50.920;12.238;2022-11-14T07:44:41;8.68;;;6.15;;
21000;SDS011;10658;50.920;12.238;2022-11-14T07:49:00;9.73;;;6.43;;
21000;SDS011;10658;50.920;12.238;2022-11-14T07:53:20;6.93;;;5.85;;
21000;SDS011;10658;50.920;12.238;2022-11-14T07:57:40;8.15;;;5.40;;
21000;SDS011;10658;50.920;12.238;2022-11-14T08:02:02;7.50;;;5.88;;
21000;SDS011;10658;50.920;12.238;2022-11-14T08:06:23;8.77;;;6.32;;
21000;SDS011;10658;50.920;12.238;2022-11-14T08:10:47;17.33;;;7.53;;
21000;SDS011;10658;50.920;12.238;2022-11-14T08:15:10;9.88;;;7.13;;
21000;SDS011;10658;50.920;12.238;2022-11-14T08:19:30;11.63;;;8.00;;
21000;SDS011;10658;50.920;12.238;2022-11-14T08:23:51;11.70;;;8.50;;
21000;SDS011;10658;50.920;12.238;2022-11-14T08:28:11;14.25;;;9.05;;
21000;SDS011;10658;50.920;12.238;2022-11-14T08:32:31;13.75;;;9.57;;
21000;SDS011;10658;50.920;12.238;2022-11-14T08:36:55;15.52;;;9.07;;
21000;SDS011;10658;50.920;12.238;2022-11-14T08:41:17;10.98;;;8.40;;
21000;SDS011;10658;50.920;12.238;2022-11-14T08:45:40;14.20;;;8.65;;
21000;SDS011;10658;50.920;12.238;2022-11-14T08:50:00;14.13;;;9.55;;
21000;SDS011;10658;50.920;12.238;2022-11-14T08:54:22;12.75;;;9.25;;
21000;SDS011;10658;50.920;12.238;2022-11-14T08:58:43;14.82;;;10.40;;
21000;SDS011;10658;50.920;12.238;2022-11-14T09:03:07;15.10;;;10.23;;
21000;SDS011;10658;50.920;12.238;2022-11-14T09:07:27;17.52;;;11.93;;
21000;SDS011;10658;50.920;12.238;2022-11-14T09:11:47;16.30;;;11.45;;
21000;SDS011;10658;50.920;12.238;2022-11-14T09:16:08;17.30;;;10.57;;
21000;SDS011;10658;50.920;12.238;2022-11-14T09:20:28;17.63;;;11.25;;
21000;SDS011;10658;50.920;12.238;2022-11-14T09:25:11;16.42;;;11.65;;
21000;SDS011;10658;50.920;12.238;2022-11-14T09:29:30;17.73;;;12.50;;
21000;SDS011;10658;50.920;12.238;2022-11-14T09:33:51;16.10;;;11.32;;
21000;SDS011;10658;50.920;12.238;2022-11-14T09:38:12;15.25;;;11.65;;
21000;SDS011;10658;50.920;12.238;2022-11-14T09:42:36;19.02;;;12.93;;
21000;SDS011;10658;50.920;12.238;2022-11-14T09:47:02;22.02;;;12.68;;
21000;SDS011;10658;50.920;12.238;2022-11-14T09:51:27;18.67;;;12.85;;
21000;SDS011;10658;50.920;12.238;2022-11-14T09:55:51;18.23;;;12.57;;
21000;SDS011;10658;50.920;12.238;2022-11-14T10:00:21;17.63;;;11.13;;
21000;SDS011;10658;50.920;12.238;2022-11-14T10:14:10;17.52;;;11.77;;
21000;SDS011;10658;50.920;12.238;2022-11-14T10:37:10;17.25;;;10.90;;
21000;SDS011;10658;50.920;12.238;2022-11-14T10:41:59;15.13;;;9.90;;
21000;SDS011;10658;50.920;12.238;2022-11-14T10:46:25;15.27;;;9.45;;
21000;SDS011;10658;50.920;12.238;2022-11-14T10:55:17;13.05;;;9.15;;
21000;SDS011;10658;50.920;12.238;2022-11-14T10:59:37;14.38;;;8.73;;
21000;SDS011;10658;50.920;12.238;2022-11-14T11:03:57;15.95;;;9.30;;
21000;SDS011;10658;50.920;12.238;2022-11-14T11:08:45;14.25;;;9.05;;
21000;SDS011;10658;50.920;12.238;2022-11-14T11:13:34;14.85;;;8.55;;
21000;SDS011;10658;50.920;12.238;2022-11-14T11:22:47;14.00;;;9.02;;
21000;SDS011;10658;50.920;12.238;2022-11-14T11:27:11;12.82;;;7.95;;
21000;SDS011;10658;50.920;12.238;2022-11-14T11:36:28;11.32;;;8.63;;
21000;SDS011;10658;50.920;12.238;2022-11-14T11:41:18;14.38;;;9.27;;
21000;SDS011;10658;50.920;12.238;2022-11-14T11:45:46;10.70;;;7.80;;
21000;SDS011;10658;50.920;12.238;2022-11-14T11:50:13;10.48;;;7.68;;
21000;SDS011;10658;50.920;12.238;2022-11-14T11:59:31;9.27;;;6.53;;
21000;SDS011;10658;50.920;12.238;2022-11-14T12:03:55;8.60;;;5.57;;
21000;SDS011;10658;50.920;12.238;2022-11-14T12:08:19;7.47;;;5.53;;
21000;SDS011;10658;50.920;12.238;2022-11-14T12:27:05;7.88;;;5.70;;
21000;SDS011;10658;50.920;12.238;2022-11-14T12:31:31;10.25;;;5.80;;
21000;SDS011;10658;50.920;12.238;2022-11-14T12:36:00;9.95;;;7.13;;
21000;SDS011;10658;50.920;12.238;2022-11-14T12:40:24;6.65;;;4.93;;
21000;SDS011;10658;50.920;12.238;2022-11-14T12:44:47;7.78;;;5.55;;
21000;SDS011;10658;50.920;12.238;2022-11-14T12:54:04;8.32;;;5.18;;
21000;SDS011;10658;50.920;12.238;2022-11-14T13:08:56;6.97;;;4.72;;
21000;SDS011;10658;50.920;12.238;2022-11-14T13:13:11;8.05;;;5.88;;
21000;SDS011;10658;50.920;12.238;2022-11-14T13:18:00;8.25;;;5.28;;
21000;SDS011;10658;50.920;12.238;2022-11-14T13:23:00;7.68;;;5.13;;
21000;SDS011;10658;50.920;12.238;2022-11-14T13:31:48;7.07;;;5.88;;
21000;SDS011;10658;50.920;12.238;2022-11-14T13:36:19;7.07;;;4.38;;
21000;SDS011;10658;50.920;12.238;2022-11-14T13:50:30;6.55;;;5.05;;
21000;SDS011;10658;50.920;12.238;2022-11-14T13:54:54;7.72;;;4.70;;
21000;SDS011;10658;50.920;12.238;2022-11-14T14:14:00;10.00;;;5.70;;
21000;SDS011;10658;50.920;12.238;2022-11-14T14:32:09;7.20;;;5.57;;
21000;SDS011;10658;50.920;12.238;2022-11-14T14:36:51;6.40;;;5.28;;
21000;SDS011;10658;50.920;12.238;2022-11-14T14:41:13;8.95;;;6.20;;
21000;SDS011;10658;50.920;12.238;2022-11-14T14:45:43;9.73;;;7.35;;
21000;SDS011;10658;50.920;12.238;2022-11-14T14:50:20;8.70;;;6.57;;
21000;SDS011;10658;50.920;12.238;2022-11-14T14:54:42;8.90;;;5.97;;
21000;SDS011;10658;50.920;12.238;2022-11-14T14:59:15;14.13;;;6.88;;
21000;SDS011;10658;50.920;12.238;2022-11-14T15:07:58;17.17;;;10.90;;
21000;SDS011;10658;50.920;12.238;2022-11-14T15:12:19;8.52;;;6.03;;
21000;SDS011;10658;50.920;12.238;2022-11-14T15:16:40;9.48;;;6.18;;
21000;SDS011;10658;50.920;12.238;2022-11-14T15:21:08;8.13;;;6.18;;
21000;SDS011;10658;50.920;12.238;2022-11-14T15:26:08;11.27;;;7.35;;
21000;SDS011;10658;50.920;12.238;2022-11-14T15:30:35;11.45;;;6.82;;
21000;SDS011;10658;50.920;12.238;2022-11-14T15:39:39;10.05;;;6.65;;
21000;SDS011;10658;50.920;12.238;2022-11-14T15:44:00;10.13;;;7.15;;
21000;SDS011;10658;50.920;12.238;2022-11-14T15:48:20;9.10;;;6.25;;
21000;SDS011;10658;50.920;12.238;2022-11-14T15:52:47;13.63;;;7.45;;
21000;SDS011;10658;50.920;12.238;2022-11-14T15:57:12;10.40;;;6.35;;
21000;SDS011;10658;50.920;12.238;2022-11-14T16:01:33;11.07;;;7.47;;
21000;SDS011;10658;50.920;12.238;2022-11-14T16:05:53;9.07;;;6.10;;
21000;SDS011;10658;50.920;12.238;2022-11-14T16:10:20;8.80;;;6.63;;
21000;SDS011;10658;50.920;12.238;2022-11-14T16:14:41;10.68;;;7.22;;
21000;SDS011;10658;50.920;12.238;2022-11-14T16:19:01;9.25;;;6.63;;
21000;SDS011;10658;50.920;12.238;2022-11-14T16:23:22;10.35;;;6.43;;
21000;SDS011;10658;50.920;12.238;2022-11-14T16:27:43;9.70;;;6.95;;
21000;SDS011;10658;50.920;12.238;2022-11-14T16:32:04;8.57;;;5.82;;
21000;SDS011;10658;50.920;12.238;2022-11-14T16:36:24;11.30;;;7.07;;
21000;SDS011;10658;50.920;12.238;2022-11-14T16:40:43;11.90;;;7.35;;
21000;SDS011;10658;50.920;12.238;2022-11-14T16:45:03;14.68;;;7.85;;
21000;SDS011;10658;50.920;12.238;2022-11-14T16:49:23;14.43;;;8.13;;
21000;SDS011;10658;50.920;12.238;2022-11-14T16:53:44;10.45;;;7.32;;
21000;SDS011;10658;50.920;12.238;2022-11-14T16:58:04;16.35;;;7.97;;
21000;SDS011;10658;50.920;12.238;2022-11-14T17:02:24;13.20;;;7.85;;
21000;SDS011;10658;50.920;12.238;2022-11-14T17:06:44;16.90;;;10.32;;
21000;SDS011;10658;50.920;12.238;2022-11-14T17:11:08;32.92;;;23.70;;
21000;SDS011;10658;50.920;12.238;2022-11-14T17:15:27;20.67;;;12.73;;
21000;SDS011;10658;50.920;12.238;2022-11-14T17:19:49;23.25;;;12.40;;
21000;SDS011;10658;50.920;12.238;2022-11-14T17:24:10;17.13;;;10.52;;
21000;SDS011;10658;50.920;12.238;2022-11-14T17:28:34;57.83;;;30.50;;
21000;SDS011;10658;50.920;12.238;2022-11-14T17:32:56;19.70;;;11.70;;
21000;SDS011;10658;50.920;12.238;2022-11-14T17:37:18;56.20;;;29.15;;
21000;SDS011;10658;50.920;12.238;2022-11-14T17:41:38;38.83;;;19.60;;
21000;SDS011;10658;50.920;12.238;2022-11-14T17:45:58;18.77;;;10.82;;
21000;SDS011;10658;50.920;12.238;2022-11-14T17:50:18;19.92;;;12.20;;
21000;SDS011;10658;50.920;12.238;2022-11-14T17:54:38;16.02;;;9.38;;
21000;SDS011;10658;50.920;12.238;2022-11-14T17:58:59;29.25;;;16.67;;
21000;SDS011;10658;50.920;12.238;2022-11-14T18:03:20;26.70;;;15.50;;
21000;SDS011;10658;50.920;12.238;2022-11-14T18:07:39;13.93;;;8.77;;
21000;SDS011;10658;50.920;12.238;2022-11-14T18:11:59;16.50;;;9.65;;
21000;SDS011;10658;50.920;12.238;2022-11-14T18:16:19;14.07;;;8.98;;
21000;SDS011;10658;50.920;12.238;2022-11-14T18:20:40;14.52;;;8.77;;
21000;SDS011;10658;50.920;12.238;2022-11-14T18:25:00;17.85;;;10.07;;
21000;SDS011;10658;50.920;12.238;2022-11-14T18:29:21;17.67;;;9.30;;
21000;SDS011;10658;50.920;12.238;2022-11-14T18:33:41;15.70;;;9.02;;
21000;SDS011;10658;50.920;12.238;2022-11-14T18:38:01;17.25;;;9.13;;
21000;SDS011;10658;50.920;12.238;2022-11-14T18:42:21;14.57;;;8.43;;
21000;SDS011;10658;50.920;12.238;2022-11-14T18:46:41;12.48;;;7.97;;
21000;SDS011;10658;50.920;12.238;2022-11-14T18:51:01;16.05;;;10.75;;
21000;SDS011;10658;50.920;12.238;2022-11-14T18:55:27;16.98;;;10.23;;
21000;SDS011;10658;50.920;12.238;2022-11-14T18:59:46;17.35;;;11.80;;
21000;SDS011;10658;50.920;12.238;2022-11-14T19:04:08;20.77;;;13.10;;
21000;SDS011;10658;50.920;12.238;2022-11-14T19:08:30;18.17;;;12.35;;
21000;SDS011;10658;50.920;12.238;2022-11-14T19:12:51;20.58;;;12.93;;
21000;SDS011;10658;50.920;12.238;2022-11-14T19:17:12;16.77;;;10.15;;
21000;SDS011;10658;50.920;12.238;2022-11-14T19:21:37;15.20;;;9.57;;
21000;SDS011;10658;50.920;12.238;2022-11-14T19:25:58;16.10;;;9.90;;
21000;SDS011;10658;50.920;12.238;2022-11-14T19:30:19;14.88;;;8.88;;
21000;SDS011;10658;50.920;12.238;2022-11-14T19:34:39;16.30;;;9.27;;
21000;SDS011;10658;50.920;12.238;2022-11-14T19:38:59;16.02;;;8.95;;
21000;SDS011;10658;50.920;12.238;2022-11-14T19:43:20;13.75;;;9.18;;
21000;SDS011;10658;50.920;12.238;2022-11-14T19:47:39;17.25;;;9.95;;
21000;SDS011;10658;50.920;12.238;2022-11-14T19:51:59;13.05;;;8.65;;
21000;SDS011;10658;50.920;12.238;2022-11-14T19:56:21;13.70;;;7.80;;
21000;SDS011;10658;50.920;12.238;2022-11-14T20:00:41;13.73;;;8.63;;
21000;SDS011;10658;50.920;12.238;2022-11-14T20:05:01;15.38;;;7.88;;
21000;SDS011;10658;50.920;12.238;2022-11-14T20:09:20;16.08;;;9.13;;
21000;SDS011;10658;50.920;12.238;2022-11-14T20:13:40;15.98;;;9.48;;
21000;SDS011;10658;50.920;12.238;2022-11-14T20:18:01;17.98;;;9.77;;
21000;SDS011;10658;50.920;12.238;2022-11-14T20:22:21;17.30;;;9.05;;
21000;SDS011;10658;50.920;12.238;2022-11-14T20:26:41;13.90;;;8.18;;
21000;SDS011;10658;50.920;12.238;2022-11-14T20:31:01;16.83;;;9.75;;
21000;SDS011;10658;50.920;12.238;2022-11-14T20:35:22;16.80;;;10.00;;
21000;SDS011;10658;50.920;12.238;2022-11-14T20:39:42;16.73;;;10.45;;
21000;SDS011;10658;50.920;12.238;2022-11-14T20:44:02;18.13;;;10.13;;
21000;SDS011;10658;50.920;12.238;2022-11-14T20:48:22;18.40;;;11.20;;
21000;SDS011;10658;50.920;12.238;2022-11-14T20:52:43;20.83;;;11.00;;
21000;SDS011;10658;50.920;12.238;2022-11-14T20:57:04;15.95;;;9.10;;
21000;SDS011;10658;50.920;12.238;2022-11-14T21:01:24;17.45;;;9.45;;
21000;SDS011;10658;50.920;12.238;2022-11-14T21:05:44;15.43;;;8.57;;
21000;SDS011;10658;50.920;12.238;2022-11-14T21:10:04;17.30;;;10.00;;
21000;SDS011;10658;50.920;12.238;2022-11-14T21:14:43;18.20;;;10.27;;
21000;SDS011;10658;50.920;12.238;2022-11-14T21:19:03;14.63;;;8.60;;
21000;SDS011;10658;50.920;12.238;2022-11-14T21:23:25;17.00;;;8.55;;
21000;SDS011;10658;50.920;12.238;2022-11-14T21:27:44;14.00;;;8.68;;
21000;SDS011;10658;50.920;12.238;2022-11-14T21:32:04;16.02;;;9.95;;
21000;SDS011;10658;50.920;12.238;2022-11-14T21:36:24;16.05;;;8.80;;
21000;SDS011;10658;50.920;12.238;2022-11-14T21:40:51;14.80;;;8.75;;
21000;SDS011;10658;50.920;12.238;2022-11-14T21:45:13;14.60;;;9.18;;
21000;SDS011;10658;50.920;12.238;2022-11-14T21:49:34;16.55;;;8.52;;
21000;SDS011;10658;50.920;12.238;2022-11-14T21:53:55;16.25;;;8.70;;
21000;SDS011;10658;50.920;12.238;2022-11-14T21:58:20;15.05;;;8.65;;
21000;SDS011;10658;50.920;12.238;2022-11-14T22:02:41;14.07;;;9.07;;
21000;SDS011;10658;50.920;12.238;2022-11-14T22:07:19;13.30;;;8.50;;
21000;SDS011;10658;50.920;12.238;2022-11-14T22:11:39;12.25;;;8.27;;
21000;SDS011;10658;50.920;12.238;2022-11-14T22:16:03;15.70;;;9.30;;
21000;SDS011;10658;50.920;12.238;2022-11-14T22:20:24;20.42;;;12.00;;
21000;SDS011;10658;50.920;12.238;2022-11-14T22:24:44;13.75;;;8.18;;
21000;SDS011;10658;50.920;12.238;2022-11-14T22:29:04;17.17;;;8.65;;
21000;SDS011;10658;50.920;12.238;2022-11-14T22:33:24;14.25;;;7.97;;
21000;SDS011;10658;50.920;12.238;2022-11-14T22:37:44;15.75;;;8.82;;
21000;SDS011;10658;50.920;12.238;2022-11-14T22:42:05;15.05;;;8.75;;
21000;SDS011;10658;50.920;12.238;2022-11-14T22:46:26;15.60;;;9.20;;
21000;SDS011;10658;50.920;12.238;2022-11-14T22:50:47;16.67;;;9.15;;
21000;SDS011;10658;50.920;12.238;2022-11-14T22:55:14;16.90;;;9.18;;
21000;SDS011;10658;50.920;12.238;2022-11-14T22:59:35;16.88;;;9.57;;
21000;SDS011;10658;50.920;12.238;2022-11-14T23:03:56;16.38;;;9.38;;
21000;SDS011;10658;50.920;12.238;2022-11-14T23:08:20;16.63;;;9.63;;
21000;SDS011;10658;50.920;12.238;2022-11-14T23:12:41;18.30;;;10.60;;
21000;SDS011;10658;50.920;12.238;2022-11-14T23:17:02;16.10;;;9.05;;
21000;SDS011;10658;50.920;12.238;2022-11-14T23:21:23;16.45;;;10.20;;
21000;SDS011;10658;50.920;12.238;2022-11-14T23:25:49;17.25;;;9.55;;
21000;SDS011;10658;50.920;12.238;2022-11-14T23:30:09;17.52;;;9.68;;
21000;SDS011;10658;50.920;12.238;2022-11-14T23:34:30;17.45;;;9.73;;
21000;SDS011;10658;50.920;12.238;2022-11-14T23:38:51;15.50;;;8.73;;
21000;SDS011;10658;50.920;12.238;2022-11-14T23:43:11;14.68;;;9.27;;
21000;SDS011;10658;50.920;12.238;2022-11-14T23:47:31;15.23;;;9.77;;
21000;SDS011;10658;50.920;12.238;2022-11-14T23:51:52;17.77;;;9.40;;
21000;SDS011;10658;50.920;12.238;2022-11-14T23:56:12;18.83;;;9.23;;
